Athelstane, WI

1:35 AM CDT on July 26, 2014 (GMT -0500)
Athelstane Township (KWIATHEL1) Elev 966 ft | 45.40 °N, 88.12 °W | Change Station

Current weather conditions updated 3 seconds ago

Overcast
Overcast
63.5 °F
Feels Like 63.5 °F
N
0.0
Wind Variable Wind from SW
Gusts 0.0 mph

Today is forecast to be Much Warmer than yesterday. Thunderstorms early.

Today
High -- | Low -- °F
--% Chance of Precip.
Yesterday
High -- | Low -- °F
Precip. -- in
5:30 AM 8:28 PM
Waning Crescent, 0% visible
Pressure 29.82 in
Visibility 8.0 miles
Clouds Few 1200 ft
Overcast 6000 ft
Dew Point 58 °F
Humidity 81%
Rainfall 0.00 in
Snow Depth Not available.
UV 0 out of 12
Pollen 6.50 out of 12
Air Quality Not available.
Flu Activity Not available.
SPECI KIMT 260629Z AUTO 17004KT 8SM FEW012 OVC060 18/16 A2982 RMK AO2 T01830161

More Conditions Fewer Conditions

Pressure 29.82 in
Visibility 8.0 miles
Clouds Few 1200 ft
Overcast 6000 ft
Dew Point 58 °F
Humidity 81%
Rainfall 0.00 in
Snow Depth Not available.
UV 0 out of 12
Pollen 6.50 out of 12
Air Quality Not available.
Flu Activity Not available.
SPECI KIMT 260629Z AUTO 17004KT 8SM FEW012 OVC060 18/16 A2982 RMK AO2 T01830161

More Conditions Fewer Conditions

10-Day Weather Forecast

Almanac

Astronomy

Jul. 26, 2014 Rise Set
Actual Time 5:30 AM CDT 8:28 PM CDT
Civil Twilight 4:55 AM CDT 9:02 PM CDT
Nautical Twilight 4:10 AM CDT 9:47 PM CDT
Astronomical Twilight 3:17 AM CDT 10:40 PM CDT
Moon 5:26 AM CDT 7:58 PM CDT
Length of Visible Light 16h 07m
Length of Day
14h 57m
Tomorrow will be 2m 15s shorter.
Waning Crescent, 0% of the Moon is Illuminated
Today
Waning Crescent
Jul 26
New
Aug 3
First Quarter
Aug 10
Full
Aug 17
Last Quarter

Today's Extremes

State Highs State Lows

Community

WunderPhotos

Upload Photos

1,737,524 photos uploaded!

Nearby

Snow Depth

Station Depth Elevation
No new snow has been reported.

Earthquake Activity

City Distance Mag. Time & Date
No recent earthquake activity has been reported nearby.
Minimum magnitude displayed is 2.5.

Coastal Water Temperatures

Place Temperature
No Stations Reporting

Nearby Weather Stations

Station Location Temp. Dew Point Humidity Wind Precip. Elev Updated Type
Athelstane Township, Athelstane, WI 63.5 °F 58 °F 81% SW  at  0.0 mph 0.00 in / hr 966 ft 1:35 AM CDT Rapid Fire
Pine Ridge Lake, Lakewood, WI 65.8 °F 62 °F 89% West  at  2.0 mph 0.00 in / hr 1266 ft 1:35 AM CDT Rapid Fire
Lakewood, WI 65.0 °F 60 °F 85% South  at  0.0 mph 0.00 in / hr 1219 ft 1:30 AM CDT Normal
RAWS LAONA WI, Wabeno, WI 64 °F 62 °F 92% SW  at  5 mph 0.00 in / hr 1560 ft 1:01 AM CDT MADIS
Mountain, Mountain, WI 65.0 °F 62 °F 90% WSW  at  1.0 mph 0.00 in / hr 925 ft 1:35 AM CDT Rapid Fire
Silver Lake, Laona, WI, Laona, WI 63.9 °F 63 °F 96% West  at  1.3 mph 0.00 in / hr 1581 ft 1:35 AM CDT Rapid Fire

Show More Stations Show Fewer Stations